createdAt,value
2022-12-05T00:01:41.055Z,68.80
2022-12-05T00:03:42.919Z,68.80
2022-12-05T00:05:44.767Z,68.90
2022-12-05T00:07:46.680Z,69.10
2022-12-05T00:09:48.378Z,69.10
2022-12-05T00:11:50.291Z,69.00
2022-12-05T00:13:53.184Z,69.80
2022-12-05T00:15:54.856Z,69.10
2022-12-05T00:17:56.570Z,69.00
2022-12-05T00:19:58.910Z,69.10
2022-12-05T00:22:00.700Z,69.00
2022-12-05T00:24:04.419Z,69.10
2022-12-05T00:26:06.444Z,69.10
2022-12-05T00:28:08.070Z,69.00
2022-12-05T00:30:09.827Z,69.00
2022-12-05T00:32:11.519Z,68.90
2022-12-05T00:34:13.339Z,68.80
2022-12-05T00:36:17.625Z,69.00
2022-12-05T00:38:19.301Z,68.80
2022-12-05T00:40:20.965Z,68.80
2022-12-05T00:42:22.598Z,68.80
2022-12-05T00:44:24.235Z,68.70
2022-12-05T00:46:26.952Z,68.60
2022-12-05T00:48:28.724Z,68.60
2022-12-05T00:50:30.298Z,68.60
2022-12-05T00:52:31.938Z,68.60
2022-12-05T00:54:33.556Z,68.70
2022-12-05T00:56:35.705Z,68.80
2022-12-05T00:58:37.718Z,68.90
2022-12-05T01:00:39.328Z,69.00
2022-12-05T01:02:40.994Z,69.00
2022-12-05T01:04:42.673Z,69.00
2022-12-05T01:06:44.482Z,68.90
2022-12-05T01:08:46.137Z,68.80
2022-12-05T01:10:57.494Z,68.70
2022-12-05T01:12:59.311Z,68.60
2022-12-05T01:15:00.998Z,68.70
2022-12-05T01:17:02.795Z,68.70
2022-12-05T01:19:06.202Z,68.80
2022-12-05T01:21:07.996Z,68.90
2022-12-05T01:23:09.657Z,69.00
2022-12-05T01:25:11.284Z,69.00
2022-12-05T01:27:12.908Z,68.90
2022-12-05T01:29:15.699Z,68.90
2022-12-05T01:31:28.210Z,68.90
2022-12-05T01:33:29.883Z,69.00
2022-12-05T01:35:32.377Z,69.00
2022-12-05T01:37:34.061Z,69.10
2022-12-05T01:39:35.703Z,69.00
2022-12-05T01:41:40.739Z,69.20
2022-12-05T01:43:57.798Z,69.10
2022-12-05T01:45:59.519Z,69.10
2022-12-05T01:48:03.481Z,69.00
2022-12-05T01:50:05.556Z,69.10
2022-12-05T01:52:21.013Z,69.10
2022-12-05T01:54:23.057Z,69.00
2022-12-05T01:56:24.787Z,69.00
2022-12-05T01:58:29.893Z,69.90
2022-12-05T02:00:31.768Z,69.10
2022-12-05T02:02:33.550Z,69.20
2022-12-05T02:04:37.953Z,69.10
2022-12-05T02:06:39.593Z,69.10
2022-12-05T02:08:41.842Z,69.20
2022-12-05T02:10:45.636Z,69.10
2022-12-05T02:12:49.339Z,69.20
2022-12-05T02:14:58.949Z,69.10
2022-12-05T02:17:09.751Z,69.20
2022-12-05T02:19:11.402Z,69.30
2022-12-05T02:21:21.840Z,69.30
2022-12-05T02:23:29.430Z,69.20
2022-12-05T02:25:34.197Z,69.10
2022-12-05T02:27:38.856Z,69.10
2022-12-05T02:29:46.442Z,69.10
2022-12-05T02:32:10.879Z,68.80
2022-12-05T02:34:19.784Z,68.80
2022-12-05T02:36:21.564Z,68.70
2022-12-05T02:38:41.543Z,68.70
2022-12-05T02:41:01.801Z,68.70
2022-12-05T02:43:10.452Z,68.40
2022-12-05T02:45:14.129Z,68.60
2022-12-05T02:47:17.772Z,68.80
2022-12-05T02:49:22.259Z,68.80
2022-12-05T02:51:25.846Z,68.80
2022-12-05T02:53:30.049Z,68.70
2022-12-05T02:55:32.363Z,68.60
2022-12-05T02:57:35.014Z,68.70
2022-12-05T02:59:36.792Z,68.80
2022-12-05T03:01:39.061Z,69.00
2022-12-05T03:03:40.862Z,69.00
2022-12-05T03:06:01.222Z,69.00
2022-12-05T03:08:04.769Z,69.00
2022-12-05T03:10:07.875Z,68.90
2022-12-05T03:12:16.513Z,69.00
2022-12-05T03:14:21.636Z,69.10
2022-12-05T03:16:26.345Z,68.90
2022-12-05T03:18:30.420Z,68.90
2022-12-05T03:20:55.094Z,68.90
2022-12-05T03:22:59.029Z,68.90
2022-12-05T03:25:01.320Z,69.10
2022-12-05T03:27:15.150Z,69.10
2022-12-05T03:29:43.154Z,69.00
2022-12-05T03:31:48.922Z,68.90
2022-12-05T03:33:51.754Z,68.90
2022-12-05T03:36:02.255Z,68.80
2022-12-05T03:38:10.074Z,69.00
2022-12-05T03:40:11.733Z,68.90
2022-12-05T03:42:13.987Z,68.50
2022-12-05T03:44:22.039Z,68.40
2022-12-05T03:46:26.465Z,68.50
2022-12-05T03:48:32.069Z,68.60
2022-12-05T03:50:35.046Z,68.50
2022-12-05T03:53:17.603Z,68.50
2022-12-05T03:55:06.544Z,68.60
2022-12-05T03:57:08.115Z,68.80
2022-12-05T03:59:22.426Z,69.00
2022-12-05T04:01:25.677Z,68.80
2022-12-05T04:03:39.159Z,68.80
2022-12-05T04:05:47.050Z,68.80
2022-12-05T04:07:51.419Z,69.00
2022-12-05T04:09:57.572Z,69.10
2022-12-05T04:12:05.038Z,69.10
2022-12-05T04:14:08.471Z,69.20
2022-12-05T04:16:30.242Z,69.30
2022-12-05T04:18:32.707Z,69.30
2022-12-05T04:20:57.924Z,69.30
2022-12-05T04:23:00.057Z,69.50
2022-12-05T04:25:21.448Z,69.40
2022-12-05T04:27:28.214Z,69.40
2022-12-05T04:29:32.184Z,69.20
2022-12-05T04:31:37.255Z,69.20
2022-12-05T04:33:47.877Z,69.00
2022-12-05T04:35:53.641Z,68.80
2022-12-05T04:37:58.215Z,69.00
2022-12-05T04:40:06.120Z,68.90
2022-12-05T04:42:10.075Z,68.90
2022-12-05T04:44:13.406Z,68.80
2022-12-05T04:46:16.536Z,69.00
2022-12-05T04:48:19.011Z,69.10
2022-12-05T04:50:20.734Z,69.10
2022-12-05T04:52:22.968Z,69.20
2022-12-05T04:54:27.332Z,69.30
2022-12-05T04:56:33.192Z,69.30
2022-12-05T04:58:34.800Z,69.20
2022-12-05T05:00:47.291Z,69.10
2022-12-05T05:02:58.868Z,69.10
2022-12-05T05:05:01.387Z,69.10
2022-12-05T05:07:07.982Z,69.10
2022-12-05T05:09:10.124Z,69.20
2022-12-05T05:11:14.816Z,69.10
2022-12-05T05:13:16.431Z,69.00
2022-12-05T05:15:18.050Z,69.00
2022-12-05T05:17:19.691Z,69.00
2022-12-05T05:19:21.348Z,69.10
2022-12-05T05:21:30.514Z,69.10
2022-12-05T05:23:35.215Z,69.30
2022-12-05T05:25:36.881Z,69.30
2022-12-05T05:27:38.508Z,69.10
2022-12-05T05:29:40.374Z,69.10
2022-12-05T05:31:42.541Z,69.20
2022-12-05T05:33:44.447Z,69.20
2022-12-05T05:35:46.376Z,69.30
2022-12-05T05:37:48.027Z,69.40
2022-12-05T05:39:49.634Z,69.20
2022-12-05T05:41:54.058Z,69.20
2022-12-05T05:43:56.264Z,69.10
2022-12-05T05:45:59.308Z,69.10
2022-12-05T05:48:00.980Z,69.10
2022-12-05T05:50:02.949Z,69.20
2022-12-05T05:52:04.702Z,69.20
2022-12-05T05:54:06.447Z,69.30
2022-12-05T05:56:09.686Z,69.20
2022-12-05T05:58:12.556Z,69.20
2022-12-05T06:00:14.933Z,69.30
2022-12-05T06:02:16.543Z,69.40
2022-12-05T06:04:18.222Z,69.30
2022-12-05T06:06:20.531Z,69.10
2022-12-05T06:08:22.232Z,69.00
2022-12-05T06:10:23.938Z,69.00
2022-12-05T06:12:25.569Z,69.00
2022-12-05T06:14:29.053Z,69.10
2022-12-05T06:16:35.035Z,69.20
2022-12-05T06:18:36.956Z,69.20
2022-12-05T06:20:38.677Z,69.20
2022-12-05T06:22:40.395Z,69.30
2022-12-05T06:24:42.098Z,69.20
2022-12-05T06:26:46.099Z,69.20
2022-12-05T06:28:50.431Z,69.20
2022-12-05T06:30:52.149Z,69.10
2022-12-05T06:32:56.879Z,69.00
2022-12-05T06:34:58.525Z,69.10
2022-12-05T06:37:00.402Z,69.10
2022-12-05T06:39:02.067Z,69.20
2022-12-05T06:41:11.278Z,69.20
2022-12-05T06:43:12.940Z,69.20
2022-12-05T06:45:17.598Z,69.30
2022-12-05T06:47:19.243Z,69.10
2022-12-05T06:49:27.872Z,69.10
2022-12-05T06:51:34.332Z,69.10
2022-12-05T06:53:35.985Z,69.00
2022-12-05T06:55:37.609Z,69.20
2022-12-05T06:57:39.250Z,69.40
2022-12-05T06:59:43.760Z,69.40
2022-12-05T07:01:47.028Z,69.40
2022-12-05T07:03:49.190Z,69.20
2022-12-05T07:05:50.838Z,69.30
2022-12-05T07:07:52.772Z,69.30
2022-12-05T07:09:54.574Z,69.30
2022-12-05T07:11:58.916Z,69.10
2022-12-05T07:14:00.702Z,68.90
2022-12-05T07:16:04.532Z,69.00
2022-12-05T07:18:09.247Z,69.10
2022-12-05T07:20:12.577Z,69.00
2022-12-05T07:22:16.111Z,69.10
2022-12-05T07:24:17.937Z,69.20
2022-12-05T07:26:20.919Z,69.20
2022-12-05T07:28:22.584Z,69.00
2022-12-05T07:30:24.325Z,68.90
2022-12-05T07:32:26.202Z,68.90
2022-12-05T07:34:29.045Z,69.80
2022-12-05T07:36:33.334Z,69.10
2022-12-05T07:38:37.916Z,69.30
2022-12-05T07:40:39.539Z,69.30
2022-12-05T07:42:41.189Z,69.30
2022-12-05T07:44:42.873Z,69.30
2022-12-05T07:46:44.551Z,69.20
2022-12-05T07:48:47.291Z,69.20
2022-12-05T07:50:49.073Z,69.20
2022-12-05T07:52:50.834Z,69.20
2022-12-05T07:54:52.532Z,69.30
2022-12-05T07:56:54.204Z,69.40
2022-12-05T07:58:55.842Z,69.40
2022-12-05T08:00:58.869Z,69.50
2022-12-05T08:03:02.638Z,69.70
2022-12-05T08:05:04.516Z,69.60
2022-12-05T08:07:06.179Z,69.80
2022-12-05T08:09:07.926Z,69.80
2022-12-05T08:11:11.216Z,69.80
2022-12-05T08:13:12.834Z,69.60
2022-12-05T08:15:14.563Z,69.70
2022-12-05T08:17:16.360Z,69.90
2022-12-05T08:19:18.177Z,69.80
2022-12-05T08:21:20.034Z,69.70
2022-12-05T08:23:21.703Z,69.50
2022-12-05T08:25:23.709Z,69.60
2022-12-05T08:27:25.463Z,70.30
2022-12-05T08:29:27.342Z,69.60
2022-12-05T08:31:31.230Z,69.70
2022-12-05T08:33:33.106Z,69.60
2022-12-05T08:35:36.811Z,69.60
2022-12-05T08:37:38.593Z,69.60
2022-12-05T08:39:40.360Z,69.60
2022-12-05T08:41:42.759Z,69.60
2022-12-05T08:43:44.752Z,69.60
2022-12-05T08:45:53.079Z,69.60
2022-12-05T08:47:54.827Z,69.60
2022-12-05T08:49:56.884Z,69.60
2022-12-05T08:51:58.781Z,69.60
2022-12-05T08:54:04.193Z,69.60
2022-12-05T08:56:07.007Z,69.70
2022-12-05T08:58:08.846Z,69.70
2022-12-05T09:00:10.876Z,69.70
2022-12-05T09:02:12.698Z,69.70
2022-12-05T09:04:14.481Z,69.70
2022-12-05T09:06:17.585Z,69.70
2022-12-05T09:08:19.420Z,69.70
2022-12-05T09:10:21.748Z,69.70
2022-12-05T09:12:23.481Z,69.70
2022-12-05T09:14:25.339Z,69.70
2022-12-05T09:16:36.962Z,69.60
2022-12-05T09:18:41.202Z,69.60
2022-12-05T09:20:42.901Z,69.60
2022-12-05T09:22:44.630Z,69.60
2022-12-05T09:24:46.273Z,69.60
2022-12-05T09:26:48.013Z,69.60
2022-12-05T09:28:49.783Z,69.60
2022-12-05T09:30:58.310Z,69.60
2022-12-05T09:33:00.198Z,69.40
2022-12-05T09:35:02.009Z,69.50
2022-12-05T09:37:23.150Z,69.60
2022-12-05T09:39:25.950Z,69.60
2022-12-05T09:41:49.224Z,69.60
2022-12-05T09:43:57.745Z,69.60
2022-12-05T09:46:04.673Z,69.60
2022-12-05T09:48:14.447Z,69.70
2022-12-05T09:50:42.338Z,69.50
2022-12-05T09:52:56.567Z,69.40
2022-12-05T09:55:02.994Z,69.10
2022-12-05T09:57:05.304Z,69.00
2022-12-05T09:59:12.232Z,69.10
2022-12-05T10:01:17.023Z,69.20
2022-12-05T10:03:28.280Z,69.40
2022-12-05T10:05:38.171Z,69.50
2022-12-05T10:07:39.966Z,69.40
2022-12-05T10:09:50.955Z,69.50
2022-12-05T10:11:55.576Z,69.40
2022-12-05T10:14:12.635Z,69.40
2022-12-05T10:16:18.038Z,69.40
2022-12-05T10:18:22.868Z,69.40
2022-12-05T10:20:50.831Z,69.40
2022-12-05T10:22:58.200Z,69.50
2022-12-05T10:25:02.276Z,69.50
2022-12-05T10:27:08.017Z,69.50
2022-12-05T10:29:29.807Z,69.50
2022-12-05T10:31:33.664Z,69.70
2022-12-05T10:33:41.257Z,69.70
2022-12-05T10:35:43.205Z,69.80
2022-12-05T10:37:48.227Z,69.80
2022-12-05T10:39:50.749Z,69.70
2022-12-05T10:41:52.529Z,69.70
2022-12-05T10:43:54.986Z,69.70
2022-12-05T10:45:57.364Z,69.80
2022-12-05T10:47:59.147Z,69.80
2022-12-05T10:50:03.959Z,69.70
2022-12-05T10:52:06.099Z,69.70
2022-12-05T10:54:16.694Z,69.60
2022-12-05T10:56:37.120Z,69.40
2022-12-05T10:58:38.841Z,69.50
2022-12-05T11:00:46.347Z,69.40
2022-12-05T11:02:49.437Z,69.50
2022-12-05T11:04:51.324Z,69.50
2022-12-05T11:06:55.347Z,69.50
2022-12-05T11:09:05.967Z,69.50
2022-12-05T11:11:17.398Z,69.50
2022-12-05T11:13:24.868Z,69.60
2022-12-05T11:15:28.097Z,69.60
2022-12-05T11:17:31.911Z,69.70
2022-12-05T11:19:34.818Z,69.70
2022-12-05T11:21:41.975Z,69.70
2022-12-05T11:23:43.673Z,69.70
2022-12-05T11:25:45.452Z,69.70
2022-12-05T11:27:47.199Z,69.70
2022-12-05T11:30:24.552Z,69.60
2022-12-05T11:32:28.153Z,69.60
2022-12-05T11:34:33.119Z,69.60
2022-12-05T11:36:43.736Z,69.70
2022-12-05T11:38:45.586Z,69.70
2022-12-05T11:41:09.437Z,69.80
2022-12-05T11:43:29.665Z,69.70
2022-12-05T11:45:34.308Z,69.50
2022-12-05T11:47:55.088Z,69.50
2022-12-05T11:50:05.818Z,69.50
2022-12-05T11:52:07.471Z,69.70
2022-12-05T11:54:09.158Z,69.70
2022-12-05T11:56:10.828Z,69.70
2022-12-05T11:58:15.494Z,69.50
2022-12-05T12:00:17.178Z,69.60
2022-12-05T12:02:33.544Z,69.70
2022-12-05T12:04:46.938Z,69.60
2022-12-05T12:06:54.593Z,69.70
2022-12-05T12:09:02.504Z,69.50
2022-12-05T12:11:13.599Z,69.60
2022-12-05T12:13:21.140Z,69.60
2022-12-05T12:15:22.852Z,69.70
2022-12-05T12:17:24.846Z,69.60
2022-12-05T12:19:51.262Z,69.70
2022-12-05T12:22:02.061Z,69.70
2022-12-05T12:24:03.669Z,70.10
2022-12-05T12:26:13.022Z,70.00
2022-12-05T12:28:23.908Z,70.00
2022-12-05T12:30:31.999Z,70.70
2022-12-05T12:32:52.273Z,69.90
2022-12-05T12:35:09.934Z,70.10
2022-12-05T12:37:30.343Z,70.10
2022-12-05T12:39:32.029Z,70.10
2022-12-05T12:41:40.060Z,70.00
2022-12-05T12:43:54.664Z,70.00
2022-12-05T12:46:10.977Z,69.80
2022-12-05T12:48:13.257Z,69.90
2022-12-05T12:50:18.807Z,69.80
2022-12-05T12:52:23.726Z,69.70
2022-12-05T12:55:01.678Z,69.70
2022-12-05T12:56:56.020Z,69.70
2022-12-05T12:59:06.151Z,70.70
2022-12-05T13:01:22.827Z,69.70
2022-12-05T13:03:36.555Z,69.70
2022-12-05T13:05:46.759Z,69.50
2022-12-05T13:07:51.801Z,69.50
2022-12-05T13:10:11.199Z,69.50
2022-12-05T13:12:19.694Z,69.50
2022-12-05T13:14:25.176Z,70.30
2022-12-05T13:16:29.157Z,69.50
2022-12-05T13:18:31.054Z,69.40
2022-12-05T13:20:34.535Z,69.40
2022-12-05T13:22:36.952Z,69.20
2022-12-05T13:24:38.871Z,69.20
2022-12-05T13:26:45.984Z,69.20
2022-12-05T13:28:50.329Z,69.00
2022-12-05T13:30:58.085Z,69.00
2022-12-05T13:33:04.464Z,69.00
2022-12-05T13:35:10.901Z,69.10
2022-12-05T13:37:37.626Z,69.20
2022-12-05T13:39:58.405Z,69.40
2022-12-05T13:42:15.834Z,69.40
2022-12-05T13:44:28.593Z,69.40
2022-12-05T13:46:31.860Z,70.30
2022-12-05T13:48:35.496Z,69.60
2022-12-05T13:50:43.506Z,69.70
2022-12-05T13:52:47.911Z,69.60
2022-12-05T13:54:58.706Z,69.60
2022-12-05T13:57:05.136Z,69.60
2022-12-05T13:59:08.600Z,69.40
2022-12-05T14:01:36.239Z,69.40
2022-12-05T14:03:47.159Z,69.40
2022-12-05T14:05:50.268Z,69.40
2022-12-05T14:07:58.556Z,69.40
2022-12-05T14:10:02.914Z,69.40
2022-12-05T14:12:10.666Z,69.40
2022-12-05T14:14:12.519Z,69.40
2022-12-05T14:16:23.468Z,69.40
2022-12-05T14:18:38.137Z,69.40
2022-12-05T14:20:52.964Z,69.40
2022-12-05T14:23:13.435Z,69.40
2022-12-05T14:25:18.041Z,69.40
2022-12-05T14:27:35.707Z,69.40
2022-12-05T14:29:56.811Z,69.40
2022-12-05T14:32:03.985Z,69.30
2022-12-05T14:34:15.677Z,69.20
2022-12-05T14:36:30.870Z,69.20
2022-12-05T14:38:36.587Z,69.10
2022-12-05T14:40:39.986Z,69.10
2022-12-05T14:42:52.835Z,69.10
2022-12-05T14:44:55.907Z,69.10
2022-12-05T14:47:03.366Z,69.00
2022-12-05T14:49:23.976Z,69.00
2022-12-05T14:51:31.680Z,69.00
2022-12-05T14:53:34.726Z,68.90
2022-12-05T14:55:36.581Z,68.90
2022-12-05T14:57:44.118Z,69.00
2022-12-05T14:59:57.650Z,69.10
2022-12-05T15:02:01.067Z,69.00
2022-12-05T15:04:11.889Z,68.70
2022-12-05T15:06:15.967Z,68.70
2022-12-05T15:08:18.108Z,68.80
2022-12-05T15:10:29.310Z,68.70
2022-12-05T15:12:37.016Z,68.80
2022-12-05T15:14:43.797Z,68.80
2022-12-05T15:16:46.625Z,68.70
2022-12-05T15:18:51.711Z,68.70
2022-12-05T15:20:59.224Z,68.70
2022-12-05T15:23:01.063Z,68.80
2022-12-05T15:25:21.305Z,68.90
2022-12-05T15:27:23.224Z,68.90
2022-12-05T15:29:30.402Z,68.90
2022-12-05T15:31:33.934Z,68.80
2022-12-05T15:33:35.705Z,68.80
2022-12-05T15:35:37.521Z,68.80
2022-12-05T15:37:59.791Z,68.80
2022-12-05T15:40:07.646Z,68.70
2022-12-05T15:42:10.229Z,68.70
2022-12-05T15:44:12.037Z,68.70
2022-12-05T15:46:23.948Z,68.70
2022-12-05T15:48:25.860Z,68.80
2022-12-05T15:50:33.930Z,68.50
2022-12-05T15:52:44.731Z,68.50
2022-12-05T15:54:46.775Z,68.60
2022-12-05T15:56:52.286Z,68.70
2022-12-05T15:58:56.853Z,68.60
2022-12-05T16:01:01.221Z,68.60
2022-12-05T16:03:10.528Z,68.60
2022-12-05T16:05:31.396Z,68.50
2022-12-05T16:07:34.801Z,68.50
2022-12-05T16:09:39.563Z,68.40
2022-12-05T16:12:11.663Z,68.40
2022-12-05T16:14:21.531Z,68.40
2022-12-05T16:16:37.250Z,68.40
2022-12-05T16:18:39.212Z,68.40
2022-12-05T16:20:40.968Z,68.40
2022-12-05T16:22:48.024Z,68.50
2022-12-05T16:24:59.392Z,68.50
2022-12-05T16:27:03.631Z,68.50
2022-12-05T16:29:06.656Z,68.50
2022-12-05T16:31:15.018Z,68.50
2022-12-05T16:33:16.868Z,68.50
2022-12-05T16:35:37.345Z,68.50
2022-12-05T16:37:39.132Z,68.50
2022-12-05T16:39:44.169Z,68.40
2022-12-05T16:41:46.233Z,68.40
2022-12-05T16:43:48.168Z,68.40
2022-12-05T16:45:50.743Z,68.50
2022-12-05T16:47:54.001Z,68.50
2022-12-05T16:49:55.818Z,68.50
2022-12-05T16:52:00.393Z,68.50
2022-12-05T16:54:02.151Z,68.50
2022-12-05T16:56:04.567Z,68.60
2022-12-05T16:58:09.621Z,68.60
2022-12-05T17:00:14.728Z,68.50
2022-12-05T17:02:18.376Z,68.40
2022-12-05T17:04:20.301Z,68.60
2022-12-05T17:06:23.978Z,68.70
2022-12-05T17:08:26.325Z,68.70
2022-12-05T17:10:28.123Z,68.80
2022-12-05T17:12:29.849Z,68.80
2022-12-05T17:14:31.639Z,68.80
2022-12-05T17:16:33.457Z,68.80
2022-12-05T17:18:35.246Z,68.80
2022-12-05T17:20:37.943Z,68.80
2022-12-05T17:22:41.143Z,69.00
2022-12-05T17:24:43.307Z,68.90
2022-12-05T17:27:00.450Z,69.00
2022-12-05T17:29:02.259Z,69.00
2022-12-05T17:31:04.246Z,69.00
2022-12-05T17:33:07.107Z,68.90
2022-12-05T17:35:19.991Z,68.90
2022-12-05T17:37:21.945Z,68.90
2022-12-05T17:39:28.316Z,69.00
2022-12-05T17:41:30.525Z,69.00
2022-12-05T17:43:32.546Z,68.90
2022-12-05T17:45:34.529Z,69.00
2022-12-05T17:47:49.004Z,68.90
2022-12-05T17:49:51.883Z,68.90
2022-12-05T17:52:20.625Z,69.00
2022-12-05T17:54:15.998Z,69.10
2022-12-05T17:56:17.803Z,68.90
2022-12-05T17:58:19.870Z,68.80
2022-12-05T18:00:22.697Z,68.70
2022-12-05T18:02:24.522Z,68.70
2022-12-05T18:04:26.356Z,68.70
2022-12-05T18:06:28.896Z,68.80
2022-12-05T18:08:30.792Z,68.80
2022-12-05T18:10:33.217Z,68.90
2022-12-05T18:12:35.426Z,68.80
2022-12-05T18:14:37.318Z,68.90
2022-12-05T18:17:09.726Z,68.90
2022-12-05T18:19:19.879Z,68.90
2022-12-05T18:21:21.875Z,68.70
2022-12-05T18:23:23.792Z,68.70
2022-12-05T18:25:25.760Z,68.80
2022-12-05T18:27:27.555Z,68.80
2022-12-05T18:29:30.283Z,68.90
2022-12-05T18:31:34.034Z,68.90
2022-12-05T18:33:35.947Z,69.10
2022-12-05T18:35:40.579Z,69.00
2022-12-05T18:37:42.994Z,69.00
2022-12-05T18:39:45.023Z,68.90
2022-12-05T18:41:47.272Z,69.00
2022-12-05T18:43:49.418Z,68.90
2022-12-05T18:45:55.409Z,69.00
2022-12-05T18:48:09.954Z,68.90
2022-12-05T18:50:18.079Z,68.80
2022-12-05T18:52:20.911Z,68.80
2022-12-05T18:54:28.115Z,69.60
2022-12-05T18:56:31.814Z,68.70
2022-12-05T18:58:34.511Z,68.70
2022-12-05T19:00:36.306Z,68.50
2022-12-05T19:02:38.168Z,68.40
2022-12-05T19:04:39.994Z,68.50
2022-12-05T19:06:46.131Z,68.50
2022-12-05T19:08:47.932Z,68.70
2022-12-05T19:10:49.810Z,68.80
2022-12-05T19:12:51.617Z,68.80
2022-12-05T19:14:55.024Z,68.90
2022-12-05T19:17:00.291Z,68.90
2022-12-05T19:19:03.607Z,68.90
2022-12-05T19:21:05.654Z,68.80
2022-12-05T19:23:07.530Z,68.70
2022-12-05T19:25:09.495Z,68.70
2022-12-05T19:27:25.283Z,68.80
2022-12-05T19:29:46.925Z,68.80
2022-12-05T19:40:16.229Z,68.80
2022-12-05T19:42:32.370Z,68.70
2022-12-05T19:44:37.632Z,68.70
2022-12-05T19:46:47.668Z,68.80
2022-12-05T19:48:58.104Z,68.80
2022-12-05T19:54:29.787Z,68.90
2022-12-05T19:56:32.953Z,68.70
2022-12-05T19:58:35.412Z,68.60
2022-12-05T20:00:37.175Z,68.60
2022-12-05T20:02:40.422Z,68.70
2022-12-05T20:04:43.103Z,68.80
2022-12-05T20:06:55.314Z,68.80
2022-12-05T20:08:59.037Z,68.80
2022-12-05T20:11:08.157Z,68.80
2022-12-05T20:13:38.435Z,68.70
2022-12-05T20:15:32.860Z,68.70
2022-12-05T20:17:34.832Z,69.00
2022-12-05T20:19:36.622Z,69.00
2022-12-05T20:21:39.934Z,69.10
2022-12-05T20:23:41.733Z,69.00
2022-12-05T20:25:43.436Z,69.00
2022-12-05T20:27:46.634Z,68.90
2022-12-05T20:29:48.424Z,68.80
2022-12-05T20:31:52.175Z,68.80
2022-12-05T20:33:54.608Z,68.80
2022-12-05T20:35:59.610Z,68.80
2022-12-05T20:38:01.361Z,68.90
2022-12-05T20:40:03.229Z,68.70
2022-12-05T20:42:05.023Z,68.60
2022-12-05T20:44:07.524Z,68.70
2022-12-05T20:46:13.935Z,68.80
2022-12-05T20:48:15.752Z,68.80
2022-12-05T20:50:18.427Z,68.80
2022-12-05T20:52:22.968Z,68.80
2022-12-05T20:54:24.770Z,68.70
2022-12-05T20:56:31.643Z,69.00
2022-12-05T20:58:33.656Z,69.00
2022-12-05T21:00:36.230Z,69.00
2022-12-05T21:02:38.215Z,69.10
2022-12-05T21:04:41.021Z,69.10
2022-12-05T21:06:46.688Z,69.20
2022-12-05T21:08:54.336Z,69.20
2022-12-05T21:10:56.193Z,69.20
2022-12-05T21:12:58.006Z,69.00
2022-12-05T21:14:59.777Z,69.10
2022-12-05T21:17:01.662Z,69.30
2022-12-05T21:19:03.507Z,69.20
2022-12-05T21:21:06.841Z,69.20
2022-12-05T21:23:08.579Z,69.50
2022-12-05T21:25:10.617Z,69.50
2022-12-05T21:27:12.773Z,69.40
2022-12-05T21:29:14.723Z,69.40
2022-12-05T21:31:21.127Z,69.20
2022-12-05T21:33:28.855Z,69.40
2022-12-05T21:35:31.526Z,69.20
2022-12-05T21:37:33.414Z,69.30
2022-12-05T21:39:35.088Z,69.40
2022-12-05T21:41:36.853Z,69.20
2022-12-05T21:43:38.627Z,69.30
2022-12-05T21:45:43.741Z,69.20
2022-12-05T21:47:47.740Z,69.30
2022-12-05T21:49:49.492Z,69.30
2022-12-05T21:51:51.284Z,69.20
2022-12-05T21:53:53.015Z,69.20
2022-12-05T21:56:01.760Z,69.30
2022-12-05T21:58:03.629Z,69.20
2022-12-05T22:00:09.089Z,69.10
2022-12-05T22:02:11.124Z,69.00
2022-12-05T22:04:13.400Z,68.90
2022-12-05T22:06:15.472Z,68.80
2022-12-05T22:08:17.280Z,68.80
2022-12-05T22:10:19.607Z,68.80
2022-12-05T22:12:21.500Z,68.80
2022-12-05T22:14:23.193Z,68.80
2022-12-05T22:16:32.185Z,68.80
2022-12-05T22:18:35.142Z,69.00
2022-12-05T22:20:37.092Z,69.10
2022-12-05T22:22:38.773Z,69.20
2022-12-05T22:24:40.442Z,69.40
2022-12-05T22:26:42.137Z,69.40
2022-12-05T22:28:44.420Z,69.40
2022-12-05T22:30:48.946Z,69.40
2022-12-05T22:32:52.844Z,69.40
2022-12-05T22:34:56.927Z,69.40
2022-12-05T22:37:00.860Z,69.40
2022-12-05T22:39:02.932Z,69.50
2022-12-05T22:41:14.030Z,69.70
2022-12-05T22:43:15.718Z,69.50
2022-12-05T22:45:17.405Z,69.50
2022-12-05T22:47:19.018Z,69.40
2022-12-05T22:49:24.952Z,69.30
2022-12-05T22:51:27.867Z,69.30
2022-12-05T22:53:33.343Z,69.20
2022-12-05T22:55:35.070Z,69.10
2022-12-05T22:57:36.742Z,69.10
2022-12-05T22:59:38.433Z,69.00
2022-12-05T23:01:40.520Z,69.00
2022-12-05T23:03:42.961Z,69.10
2022-12-05T23:05:45.258Z,69.20
2022-12-05T23:07:47.072Z,69.20
2022-12-05T23:09:49.141Z,69.40
2022-12-05T23:11:50.876Z,69.40
2022-12-05T23:13:55.795Z,69.50
2022-12-05T23:16:15.649Z,69.50
2022-12-05T23:18:17.391Z,69.50
2022-12-05T23:20:19.035Z,69.40
2022-12-05T23:22:20.729Z,69.30
2022-12-05T23:24:22.511Z,69.20
2022-12-05T23:26:25.764Z,69.30
2022-12-05T23:28:27.470Z,69.50
2022-12-05T23:30:29.164Z,69.60
2022-12-05T23:32:31.676Z,69.60
2022-12-05T23:34:33.388Z,69.50
2022-12-05T23:36:36.926Z,69.40
2022-12-05T23:38:40.753Z,69.30
2022-12-05T23:40:42.449Z,69.20
2022-12-05T23:42:44.159Z,69.20
2022-12-05T23:44:46.089Z,69.20
2022-12-05T23:46:47.920Z,69.20
2022-12-05T23:48:49.940Z,69.20
2022-12-05T23:51:03.418Z,70.00
2022-12-05T23:53:05.144Z,69.40
2022-12-05T23:55:06.912Z,69.50
2022-12-05T23:57:13.317Z,69.50
2022-12-05T23:59:17.705Z,69.50
